sensor_id;sensor_type;location;lat;lon;timestamp;P1;durP1;ratioP1;P2;durP2;ratioP2
32872;SDS011;19224;52.462;16.898;2022-08-14T00:00:16;15.25;;;6.20;;
32872;SDS011;19224;52.462;16.898;2022-08-14T00:02:55;13.22;;;5.87;;
32872;SDS011;19224;52.462;16.898;2022-08-14T00:05:26;6.83;;;5.97;;
32872;SDS011;19224;52.462;16.898;2022-08-14T00:07:56;8.40;;;5.90;;
32872;SDS011;19224;52.462;16.898;2022-08-14T00:10:26;8.98;;;5.85;;
32872;SDS011;19224;52.462;16.898;2022-08-14T00:12:59;9.50;;;5.62;;
32872;SDS011;19224;52.462;16.898;2022-08-14T00:15:32;6.65;;;5.60;;
32872;SDS011;19224;52.462;16.898;2022-08-14T00:18:25;8.98;;;6.00;;
32872;SDS011;19224;52.462;16.898;2022-08-14T00:20:42;10.00;;;5.33;;
32872;SDS011;19224;52.462;16.898;2022-08-14T00:23:17;8.85;;;5.65;;
32872;SDS011;19224;52.462;16.898;2022-08-14T00:25:51;13.90;;;5.47;;
32872;SDS011;19224;52.462;16.898;2022-08-14T00:28:26;8.00;;;5.12;;
32872;SDS011;19224;52.462;16.898;2022-08-14T00:31:04;12.60;;;5.45;;
32872;SDS011;19224;52.462;16.898;2022-08-14T00:33:33;15.75;;;5.50;;
32872;SDS011;19224;52.462;16.898;2022-08-14T00:36:25;5.92;;;4.78;;
32872;SDS011;19224;52.462;16.898;2022-08-14T00:38:56;12.55;;;5.37;;
32872;SDS011;19224;52.462;16.898;2022-08-14T00:41:36;11.28;;;4.80;;
32872;SDS011;19224;52.462;16.898;2022-08-14T00:44:09;8.03;;;4.30;;
32872;SDS011;19224;52.462;16.898;2022-08-14T00:46:39;8.03;;;5.00;;
32872;SDS011;19224;52.462;16.898;2022-08-14T00:49:12;10.15;;;5.22;;
32872;SDS011;19224;52.462;16.898;2022-08-14T00:51:43;9.53;;;5.37;;
32872;SDS011;19224;52.462;16.898;2022-08-14T00:54:15;11.40;;;4.55;;
32872;SDS011;19224;52.462;16.898;2022-08-14T00:56:46;5.17;;;4.45;;
32872;SDS011;19224;52.462;16.898;2022-08-14T00:59:20;9.80;;;4.53;;
32872;SDS011;19224;52.462;16.898;2022-08-14T01:01:57;9.08;;;4.70;;
32872;SDS011;19224;52.462;16.898;2022-08-14T01:04:31;10.65;;;4.58;;
32872;SDS011;19224;52.462;16.898;2022-08-14T01:07:03;7.20;;;4.58;;
32872;SDS011;19224;52.462;16.898;2022-08-14T01:09:42;6.58;;;4.42;;
32872;SDS011;19224;52.462;16.898;2022-08-14T01:12:09;6.90;;;4.40;;
32872;SDS011;19224;52.462;16.898;2022-08-14T01:14:40;5.97;;;4.40;;
32872;SDS011;19224;52.462;16.898;2022-08-14T01:17:12;6.08;;;4.28;;
32872;SDS011;19224;52.462;16.898;2022-08-14T01:19:43;5.92;;;4.42;;
32872;SDS011;19224;52.462;16.898;2022-08-14T01:22:32;9.95;;;4.25;;
32872;SDS011;19224;52.462;16.898;2022-08-14T01:25:04;7.40;;;4.15;;
32872;SDS011;19224;52.462;16.898;2022-08-14T01:27:36;8.60;;;4.15;;
32872;SDS011;19224;52.462;16.898;2022-08-14T01:30:15;8.63;;;4.30;;
32872;SDS011;19224;52.462;16.898;2022-08-14T01:32:42;9.08;;;4.72;;
32872;SDS011;19224;52.462;16.898;2022-08-14T01:35:15;8.88;;;4.10;;
32872;SDS011;19224;52.462;16.898;2022-08-14T01:37:51;10.35;;;4.33;;
32872;SDS011;19224;52.462;16.898;2022-08-14T01:40:23;9.08;;;4.00;;
32872;SDS011;19224;52.462;16.898;2022-08-14T01:42:56;8.53;;;4.33;;
32872;SDS011;19224;52.462;16.898;2022-08-14T01:45:27;8.08;;;4.28;;
32872;SDS011;19224;52.462;16.898;2022-08-14T01:47:59;10.70;;;4.35;;
32872;SDS011;19224;52.462;16.898;2022-08-14T01:50:29;6.67;;;4.12;;
32872;SDS011;19224;52.462;16.898;2022-08-14T01:53:01;10.05;;;4.12;;
32872;SDS011;19224;52.462;16.898;2022-08-14T01:55:33;8.18;;;4.37;;
32872;SDS011;19224;52.462;16.898;2022-08-14T01:58:07;11.18;;;4.10;;
32872;SDS011;19224;52.462;16.898;2022-08-14T02:00:42;11.08;;;4.17;;
32872;SDS011;19224;52.462;16.898;2022-08-14T02:03:14;7.45;;;4.30;;
32872;SDS011;19224;52.462;16.898;2022-08-14T02:05:46;4.50;;;4.10;;
32872;SDS011;19224;52.462;16.898;2022-08-14T02:08:18;7.75;;;4.33;;
32872;SDS011;19224;52.462;16.898;2022-08-14T02:10:51;6.95;;;4.58;;
32872;SDS011;19224;52.462;16.898;2022-08-14T02:13:24;6.87;;;4.33;;
32872;SDS011;19224;52.462;16.898;2022-08-14T02:15:55;11.85;;;4.28;;
32872;SDS011;19224;52.462;16.898;2022-08-14T02:18:26;6.40;;;4.17;;
32872;SDS011;19224;52.462;16.898;2022-08-14T02:20:59;6.95;;;4.60;;
32872;SDS011;19224;52.462;16.898;2022-08-14T02:23:31;6.53;;;4.33;;
32872;SDS011;19224;52.462;16.898;2022-08-14T02:26:13;12.25;;;4.60;;
32872;SDS011;19224;52.462;16.898;2022-08-14T02:28:47;7.30;;;4.90;;
32872;SDS011;19224;52.462;16.898;2022-08-14T02:31:23;6.72;;;4.30;;
32872;SDS011;19224;52.462;16.898;2022-08-14T02:33:59;5.78;;;4.30;;
32872;SDS011;19224;52.462;16.898;2022-08-14T02:36:36;8.53;;;4.50;;
32872;SDS011;19224;52.462;16.898;2022-08-14T02:39:10;5.67;;;4.60;;
32872;SDS011;19224;52.462;16.898;2022-08-14T02:41:42;7.62;;;4.42;;
32872;SDS011;19224;52.462;16.898;2022-08-14T02:44:17;12.63;;;4.92;;
32872;SDS011;19224;52.462;16.898;2022-08-14T02:46:50;8.98;;;4.65;;
32872;SDS011;19224;52.462;16.898;2022-08-14T02:49:25;7.08;;;4.20;;
32872;SDS011;19224;52.462;16.898;2022-08-14T02:51:56;8.25;;;4.95;;
32872;SDS011;19224;52.462;16.898;2022-08-14T02:54:29;12.18;;;4.83;;
32872;SDS011;19224;52.462;16.898;2022-08-14T02:57:01;7.55;;;4.70;;
32872;SDS011;19224;52.462;16.898;2022-08-14T02:59:34;10.00;;;4.78;;
32872;SDS011;19224;52.462;16.898;2022-08-14T03:02:09;10.08;;;4.58;;
32872;SDS011;19224;52.462;16.898;2022-08-14T03:04:39;15.05;;;4.97;;
32872;SDS011;19224;52.462;16.898;2022-08-14T03:07:12;12.07;;;5.28;;
32872;SDS011;19224;52.462;16.898;2022-08-14T03:09:47;15.65;;;5.25;;
32872;SDS011;19224;52.462;16.898;2022-08-14T03:12:18;7.55;;;4.97;;
32872;SDS011;19224;52.462;16.898;2022-08-14T03:14:57;10.43;;;4.92;;
32872;SDS011;19224;52.462;16.898;2022-08-14T03:17:22;6.92;;;4.65;;
32872;SDS011;19224;52.462;16.898;2022-08-14T03:19:56;10.72;;;5.10;;
32872;SDS011;19224;52.462;16.898;2022-08-14T03:22:28;9.68;;;4.78;;
32872;SDS011;19224;52.462;16.898;2022-08-14T03:25:00;10.93;;;4.87;;
32872;SDS011;19224;52.462;16.898;2022-08-14T03:27:31;9.30;;;4.87;;
32872;SDS011;19224;52.462;16.898;2022-08-14T03:30:03;7.25;;;4.72;;
32872;SDS011;19224;52.462;16.898;2022-08-14T03:32:35;8.15;;;5.03;;
32872;SDS011;19224;52.462;16.898;2022-08-14T03:35:09;8.55;;;4.83;;
32872;SDS011;19224;52.462;16.898;2022-08-14T03:37:40;12.03;;;4.92;;
32872;SDS011;19224;52.462;16.898;2022-08-14T03:40:11;6.83;;;4.85;;
32872;SDS011;19224;52.462;16.898;2022-08-14T03:42:42;9.18;;;5.10;;
32872;SDS011;19224;52.462;16.898;2022-08-14T03:45:12;8.98;;;4.50;;
32872;SDS011;19224;52.462;16.898;2022-08-14T03:47:43;8.90;;;5.12;;
32872;SDS011;19224;52.462;16.898;2022-08-14T03:50:15;7.33;;;4.92;;
32872;SDS011;19224;52.462;16.898;2022-08-14T03:52:46;10.20;;;5.17;;
32872;SDS011;19224;52.462;16.898;2022-08-14T03:55:20;8.45;;;5.12;;
32872;SDS011;19224;52.462;16.898;2022-08-14T03:57:56;7.80;;;5.03;;
32872;SDS011;19224;52.462;16.898;2022-08-14T04:00:26;6.22;;;5.30;;
32872;SDS011;19224;52.462;16.898;2022-08-14T04:02:59;9.10;;;4.90;;
32872;SDS011;19224;52.462;16.898;2022-08-14T04:05:32;10.78;;;5.08;;
32872;SDS011;19224;52.462;16.898;2022-08-14T04:08:07;10.48;;;5.87;;
32872;SDS011;19224;52.462;16.898;2022-08-14T04:10:41;8.13;;;4.87;;
32872;SDS011;19224;52.462;16.898;2022-08-14T04:13:13;9.58;;;5.28;;
32872;SDS011;19224;52.462;16.898;2022-08-14T04:15:45;6.70;;;5.15;;
32872;SDS011;19224;52.462;16.898;2022-08-14T04:18:17;10.28;;;5.22;;
32872;SDS011;19224;52.462;16.898;2022-08-14T04:20:48;9.78;;;5.15;;
32872;SDS011;19224;52.462;16.898;2022-08-14T04:23:21;10.68;;;5.62;;
32872;SDS011;19224;52.462;16.898;2022-08-14T04:25:55;12.60;;;5.22;;
32872;SDS011;19224;52.462;16.898;2022-08-14T04:28:26;10.43;;;5.30;;
32872;SDS011;19224;52.462;16.898;2022-08-14T04:30:57;7.55;;;4.83;;
32872;SDS011;19224;52.462;16.898;2022-08-14T04:33:28;7.87;;;5.12;;
32872;SDS011;19224;52.462;16.898;2022-08-14T04:36:00;7.10;;;4.87;;
32872;SDS011;19224;52.462;16.898;2022-08-14T04:38:32;8.05;;;4.85;;
32872;SDS011;19224;52.462;16.898;2022-08-14T04:41:22;9.00;;;5.00;;
32872;SDS011;19224;52.462;16.898;2022-08-14T04:44:11;6.90;;;5.17;;
32872;SDS011;19224;52.462;16.898;2022-08-14T04:46:42;13.28;;;5.05;;
32872;SDS011;19224;52.462;16.898;2022-08-14T04:49:15;8.75;;;5.15;;
32872;SDS011;19224;52.462;16.898;2022-08-14T04:51:46;8.00;;;5.28;;
32872;SDS011;19224;52.462;16.898;2022-08-14T04:54:17;10.78;;;5.25;;
32872;SDS011;19224;52.462;16.898;2022-08-14T04:56:49;10.32;;;5.72;;
32872;SDS011;19224;52.462;16.898;2022-08-14T04:59:22;6.45;;;5.10;;
32872;SDS011;19224;52.462;16.898;2022-08-14T05:01:56;9.13;;;5.30;;
32872;SDS011;19224;52.462;16.898;2022-08-14T05:04:27;12.03;;;5.55;;
32872;SDS011;19224;52.462;16.898;2022-08-14T05:06:58;10.55;;;5.78;;
32872;SDS011;19224;52.462;16.898;2022-08-14T05:09:29;9.55;;;5.60;;
32872;SDS011;19224;52.462;16.898;2022-08-14T05:12:02;7.10;;;5.05;;
32872;SDS011;19224;52.462;16.898;2022-08-14T05:14:33;9.68;;;5.75;;
32872;SDS011;19224;52.462;16.898;2022-08-14T05:17:04;13.22;;;5.42;;
32872;SDS011;19224;52.462;16.898;2022-08-14T05:19:36;7.53;;;4.78;;
32872;SDS011;19224;52.462;16.898;2022-08-14T05:22:06;6.12;;;4.95;;
32872;SDS011;19224;52.462;16.898;2022-08-14T05:24:37;17.55;;;5.67;;
32872;SDS011;19224;52.462;16.898;2022-08-14T05:27:08;7.00;;;5.03;;
32872;SDS011;19224;52.462;16.898;2022-08-14T05:29:41;5.95;;;5.35;;
32872;SDS011;19224;52.462;16.898;2022-08-14T05:32:16;9.33;;;5.47;;
32872;SDS011;19224;52.462;16.898;2022-08-14T05:34:48;6.28;;;4.92;;
32872;SDS011;19224;52.462;16.898;2022-08-14T05:37:21;8.10;;;5.15;;
32872;SDS011;19224;52.462;16.898;2022-08-14T05:39:53;7.78;;;5.05;;
32872;SDS011;19224;52.462;16.898;2022-08-14T05:42:27;13.00;;;5.50;;
32872;SDS011;19224;52.462;16.898;2022-08-14T05:44:59;8.25;;;5.50;;
32872;SDS011;19224;52.462;16.898;2022-08-14T05:47:37;11.18;;;5.80;;
32872;SDS011;19224;52.462;16.898;2022-08-14T05:50:10;9.35;;;4.90;;
32872;SDS011;19224;52.462;16.898;2022-08-14T05:52:42;13.65;;;5.60;;
32872;SDS011;19224;52.462;16.898;2022-08-14T05:55:13;10.85;;;5.28;;
32872;SDS011;19224;52.462;16.898;2022-08-14T05:57:45;11.12;;;5.35;;
32872;SDS011;19224;52.462;16.898;2022-08-14T06:03:08;10.38;;;4.87;;
32872;SDS011;19224;52.462;16.898;2022-08-14T06:05:44;6.40;;;4.75;;
32872;SDS011;19224;52.462;16.898;2022-08-14T06:08:21;11.70;;;5.08;;
32872;SDS011;19224;52.462;16.898;2022-08-14T06:10:58;7.50;;;5.37;;
32872;SDS011;19224;52.462;16.898;2022-08-14T06:13:33;7.97;;;4.95;;
32872;SDS011;19224;52.462;16.898;2022-08-14T06:16:08;8.65;;;4.62;;
32872;SDS011;19224;52.462;16.898;2022-08-14T06:18:39;9.80;;;5.05;;
32872;SDS011;19224;52.462;16.898;2022-08-14T06:21:22;6.15;;;4.72;;
32872;SDS011;19224;52.462;16.898;2022-08-14T06:23:54;6.55;;;4.75;;
32872;SDS011;19224;52.462;16.898;2022-08-14T06:26:27;12.60;;;4.70;;
32872;SDS011;19224;52.462;16.898;2022-08-14T06:28:58;6.40;;;4.62;;
32872;SDS011;19224;52.462;16.898;2022-08-14T06:31:29;11.35;;;5.60;;
32872;SDS011;19224;52.462;16.898;2022-08-14T06:34:01;10.23;;;4.78;;
32872;SDS011;19224;52.462;16.898;2022-08-14T06:36:31;9.80;;;4.60;;
32872;SDS011;19224;52.462;16.898;2022-08-14T06:39:05;13.08;;;6.62;;
32872;SDS011;19224;52.462;16.898;2022-08-14T06:41:37;9.10;;;4.87;;
32872;SDS011;19224;52.462;16.898;2022-08-14T06:44:10;6.85;;;4.37;;
32872;SDS011;19224;52.462;16.898;2022-08-14T06:46:41;7.50;;;4.90;;
32872;SDS011;19224;52.462;16.898;2022-08-14T06:49:13;9.78;;;4.87;;
32872;SDS011;19224;52.462;16.898;2022-08-14T06:51:52;11.70;;;5.40;;
32872;SDS011;19224;52.462;16.898;2022-08-14T06:54:16;8.08;;;4.67;;
32872;SDS011;19224;52.462;16.898;2022-08-14T06:56:48;13.35;;;4.85;;
32872;SDS011;19224;52.462;16.898;2022-08-14T06:59:26;12.82;;;4.65;;
32872;SDS011;19224;52.462;16.898;2022-08-14T07:01:52;10.55;;;4.60;;
32872;SDS011;19224;52.462;16.898;2022-08-14T07:04:39;11.03;;;4.67;;
32872;SDS011;19224;52.462;16.898;2022-08-14T07:07:37;7.28;;;5.03;;
32872;SDS011;19224;52.462;16.898;2022-08-14T07:10:10;9.23;;;4.60;;
32872;SDS011;19224;52.462;16.898;2022-08-14T07:12:49;12.18;;;4.87;;
32872;SDS011;19224;52.462;16.898;2022-08-14T07:15:18;7.80;;;4.17;;
32872;SDS011;19224;52.462;16.898;2022-08-14T07:17:50;6.70;;;4.58;;
32872;SDS011;19224;52.462;16.898;2022-08-14T07:20:21;5.72;;;4.30;;
32872;SDS011;19224;52.462;16.898;2022-08-14T07:22:54;5.95;;;4.45;;
32872;SDS011;19224;52.462;16.898;2022-08-14T07:25:27;10.18;;;4.90;;
32872;SDS011;19224;52.462;16.898;2022-08-14T07:28:07;7.22;;;4.55;;
32872;SDS011;19224;52.462;16.898;2022-08-14T07:33:14;7.53;;;4.42;;
32872;SDS011;19224;52.462;16.898;2022-08-14T07:35:45;6.55;;;4.30;;
32872;SDS011;19224;52.462;16.898;2022-08-14T07:38:17;9.10;;;4.12;;
32872;SDS011;19224;52.462;16.898;2022-08-14T07:40:50;5.33;;;3.87;;
32872;SDS011;19224;52.462;16.898;2022-08-14T07:43:21;8.10;;;3.90;;
32872;SDS011;19224;52.462;16.898;2022-08-14T07:45:54;8.45;;;4.50;;
32872;SDS011;19224;52.462;16.898;2022-08-14T07:48:28;10.25;;;5.20;;
32872;SDS011;19224;52.462;16.898;2022-08-14T07:53:50;6.58;;;4.67;;
32872;SDS011;19224;52.462;16.898;2022-08-14T07:56:22;7.58;;;4.50;;
32872;SDS011;19224;52.462;16.898;2022-08-14T07:59:00;10.40;;;4.10;;
32872;SDS011;19224;52.462;16.898;2022-08-14T08:01:31;7.30;;;4.47;;
32872;SDS011;19224;52.462;16.898;2022-08-14T08:04:02;15.68;;;4.15;;
32872;SDS011;19224;52.462;16.898;2022-08-14T08:06:36;11.97;;;4.33;;
32872;SDS011;19224;52.462;16.898;2022-08-14T08:09:08;5.97;;;4.35;;
32872;SDS011;19224;52.462;16.898;2022-08-14T08:11:39;8.48;;;4.12;;
32872;SDS011;19224;52.462;16.898;2022-08-14T08:14:12;7.92;;;4.33;;
32872;SDS011;19224;52.462;16.898;2022-08-14T08:16:45;5.72;;;4.15;;
32872;SDS011;19224;52.462;16.898;2022-08-14T08:19:16;6.80;;;4.08;;
32872;SDS011;19224;52.462;16.898;2022-08-14T08:21:48;8.55;;;4.20;;
32872;SDS011;19224;52.462;16.898;2022-08-14T08:24:22;6.28;;;3.52;;
32872;SDS011;19224;52.462;16.898;2022-08-14T08:26:52;7.97;;;3.60;;
32872;SDS011;19224;52.462;16.898;2022-08-14T08:29:23;4.22;;;3.60;;
32872;SDS011;19224;52.462;16.898;2022-08-14T08:31:54;6.28;;;3.80;;
32872;SDS011;19224;52.462;16.898;2022-08-14T08:34:26;9.15;;;4.12;;
32872;SDS011;19224;52.462;16.898;2022-08-14T08:37:04;5.70;;;3.90;;
32872;SDS011;19224;52.462;16.898;2022-08-14T08:39:41;6.30;;;3.47;;
32872;SDS011;19224;52.462;16.898;2022-08-14T08:42:24;6.45;;;3.40;;
32872;SDS011;19224;52.462;16.898;2022-08-14T08:44:57;7.62;;;4.12;;
32872;SDS011;19224;52.462;16.898;2022-08-14T08:52:58;5.90;;;3.30;;
32872;SDS011;19224;52.462;16.898;2022-08-14T08:55:43;7.15;;;3.50;;
32872;SDS011;19224;52.462;16.898;2022-08-14T08:58:17;5.55;;;3.87;;
32872;SDS011;19224;52.462;16.898;2022-08-14T09:00:53;9.43;;;3.58;;
32872;SDS011;19224;52.462;16.898;2022-08-14T09:03:27;9.78;;;3.70;;
32872;SDS011;19224;52.462;16.898;2022-08-14T09:06:20;3.77;;;3.30;;
32872;SDS011;19224;52.462;16.898;2022-08-14T09:08:52;7.03;;;3.50;;
32872;SDS011;19224;52.462;16.898;2022-08-14T09:11:23;6.97;;;3.80;;
32872;SDS011;19224;52.462;16.898;2022-08-14T09:13:55;6.55;;;3.47;;
32872;SDS011;19224;52.462;16.898;2022-08-14T09:16:27;7.97;;;3.65;;
32872;SDS011;19224;52.462;16.898;2022-08-14T09:18:59;6.05;;;3.30;;
32872;SDS011;19224;52.462;16.898;2022-08-14T09:21:30;11.30;;;3.45;;
32872;SDS011;19224;52.462;16.898;2022-08-14T09:24:03;4.97;;;3.35;;
32872;SDS011;19224;52.462;16.898;2022-08-14T09:26:36;9.55;;;3.58;;
32872;SDS011;19224;52.462;16.898;2022-08-14T09:29:09;5.67;;;3.35;;
32872;SDS011;19224;52.462;16.898;2022-08-14T09:31:42;9.08;;;3.45;;
32872;SDS011;19224;52.462;16.898;2022-08-14T09:40:46;7.22;;;3.60;;
32872;SDS011;19224;52.462;16.898;2022-08-14T09:46:52;5.05;;;3.87;;
32872;SDS011;19224;52.462;16.898;2022-08-14T09:49:35;6.40;;;4.10;;
32872;SDS011;19224;52.462;16.898;2022-08-14T09:54:45;5.22;;;3.33;;
32872;SDS011;19224;52.462;16.898;2022-08-14T09:57:24;8.48;;;3.98;;
32872;SDS011;19224;52.462;16.898;2022-08-14T10:00:08;8.23;;;3.35;;
32872;SDS011;19224;52.462;16.898;2022-08-14T10:02:56;6.87;;;4.33;;
32872;SDS011;19224;52.462;16.898;2022-08-14T10:05:31;7.33;;;4.00;;
32872;SDS011;19224;52.462;16.898;2022-08-14T10:08:04;6.12;;;4.22;;
32872;SDS011;19224;52.462;16.898;2022-08-14T10:10:41;7.33;;;3.90;;
32872;SDS011;19224;52.462;16.898;2022-08-14T10:13:20;7.42;;;3.90;;
32872;SDS011;19224;52.462;16.898;2022-08-14T10:15:57;7.40;;;3.90;;
32872;SDS011;19224;52.462;16.898;2022-08-14T10:18:31;7.62;;;3.83;;
32872;SDS011;19224;52.462;16.898;2022-08-14T10:21:04;5.05;;;3.98;;
32872;SDS011;19224;52.462;16.898;2022-08-14T10:23:40;4.95;;;4.20;;
32872;SDS011;19224;52.462;16.898;2022-08-14T10:26:16;6.75;;;4.00;;
32872;SDS011;19224;52.462;16.898;2022-08-14T10:28:49;8.93;;;4.25;;
32872;SDS011;19224;52.462;16.898;2022-08-14T10:31:23;9.35;;;4.37;;
32872;SDS011;19224;52.462;16.898;2022-08-14T10:36:42;8.48;;;5.15;;
32872;SDS011;19224;52.462;16.898;2022-08-14T10:39:18;7.72;;;5.03;;
32872;SDS011;19224;52.462;16.898;2022-08-14T10:42:03;10.13;;;5.00;;
32872;SDS011;19224;52.462;16.898;2022-08-14T10:44:40;7.47;;;4.95;;
32872;SDS011;19224;52.462;16.898;2022-08-14T10:47:20;7.20;;;4.50;;
32872;SDS011;19224;52.462;16.898;2022-08-14T10:49:58;9.33;;;4.40;;
32872;SDS011;19224;52.462;16.898;2022-08-14T10:52:31;8.13;;;4.72;;
32872;SDS011;19224;52.462;16.898;2022-08-14T10:55:08;10.70;;;4.60;;
32872;SDS011;19224;52.462;16.898;2022-08-14T10:57:50;8.30;;;4.80;;
32872;SDS011;19224;52.462;16.898;2022-08-14T11:00:25;8.23;;;5.08;;
32872;SDS011;19224;52.462;16.898;2022-08-14T11:02:57;7.72;;;5.15;;
32872;SDS011;19224;52.462;16.898;2022-08-14T11:08:28;9.75;;;5.12;;
32872;SDS011;19224;52.462;16.898;2022-08-14T11:11:02;9.95;;;5.42;;
32872;SDS011;19224;52.462;16.898;2022-08-14T11:13:34;16.37;;;5.70;;
32872;SDS011;19224;52.462;16.898;2022-08-14T11:16:09;16.20;;;5.83;;
32872;SDS011;19224;52.462;16.898;2022-08-14T11:18:49;9.75;;;6.03;;
32872;SDS011;19224;52.462;16.898;2022-08-14T11:21:20;8.48;;;5.78;;
32872;SDS011;19224;52.462;16.898;2022-08-14T11:23:52;12.80;;;5.78;;
32872;SDS011;19224;52.462;16.898;2022-08-14T11:26:40;11.73;;;6.05;;
32872;SDS011;19224;52.462;16.898;2022-08-14T11:28:59;10.65;;;6.05;;
32872;SDS011;19224;52.462;16.898;2022-08-14T11:31:35;10.88;;;6.08;;
32872;SDS011;19224;52.462;16.898;2022-08-14T11:34:09;9.35;;;6.12;;
32872;SDS011;19224;52.462;16.898;2022-08-14T11:36:45;10.75;;;5.90;;
32872;SDS011;19224;52.462;16.898;2022-08-14T11:39:25;8.98;;;5.83;;
32872;SDS011;19224;52.462;16.898;2022-08-14T11:41:52;13.98;;;6.47;;
32872;SDS011;19224;52.462;16.898;2022-08-14T11:44:30;15.70;;;6.50;;
32872;SDS011;19224;52.462;16.898;2022-08-14T11:47:03;15.40;;;6.35;;
32872;SDS011;19224;52.462;16.898;2022-08-14T11:49:35;15.55;;;6.60;;
32872;SDS011;19224;52.462;16.898;2022-08-14T11:52:12;10.90;;;6.08;;
32872;SDS011;19224;52.462;16.898;2022-08-14T11:54:44;11.93;;;6.62;;
32872;SDS011;19224;52.462;16.898;2022-08-14T11:57:25;13.35;;;6.40;;
32872;SDS011;19224;52.462;16.898;2022-08-14T12:00:07;16.00;;;6.70;;
32872;SDS011;19224;52.462;16.898;2022-08-14T12:05:27;7.90;;;6.50;;
32872;SDS011;19224;52.462;16.898;2022-08-14T12:08:14;11.28;;;5.97;;
32872;SDS011;19224;52.462;16.898;2022-08-14T12:10:40;11.55;;;6.22;;
32872;SDS011;19224;52.462;16.898;2022-08-14T12:13:23;9.15;;;5.65;;
32872;SDS011;19224;52.462;16.898;2022-08-14T12:16:03;13.05;;;6.45;;
32872;SDS011;19224;52.462;16.898;2022-08-14T12:18:35;11.48;;;6.37;;
32872;SDS011;19224;52.462;16.898;2022-08-14T12:24:08;10.03;;;6.30;;
32872;SDS011;19224;52.462;16.898;2022-08-14T12:26:40;8.85;;;6.55;;
32872;SDS011;19224;52.462;16.898;2022-08-14T12:29:14;10.18;;;6.62;;
32872;SDS011;19224;52.462;16.898;2022-08-14T12:31:45;14.18;;;6.62;;
32872;SDS011;19224;52.462;16.898;2022-08-14T12:34:33;11.88;;;6.67;;
32872;SDS011;19224;52.462;16.898;2022-08-14T12:37:06;9.60;;;6.42;;
32872;SDS011;19224;52.462;16.898;2022-08-14T12:42:20;12.37;;;6.75;;
32872;SDS011;19224;52.462;16.898;2022-08-14T12:44:56;9.18;;;6.30;;
32872;SDS011;19224;52.462;16.898;2022-08-14T12:47:28;12.43;;;6.45;;
32872;SDS011;19224;52.462;16.898;2022-08-14T12:50:00;9.30;;;6.53;;
32872;SDS011;19224;52.462;16.898;2022-08-14T12:52:32;10.03;;;6.65;;
32872;SDS011;19224;52.462;16.898;2022-08-14T12:55:10;11.53;;;7.30;;
32872;SDS011;19224;52.462;16.898;2022-08-14T12:57:47;11.15;;;7.40;;
32872;SDS011;19224;52.462;16.898;2022-08-14T13:00:23;11.63;;;7.75;;
32872;SDS011;19224;52.462;16.898;2022-08-14T13:02:55;21.25;;;9.25;;
32872;SDS011;19224;52.462;16.898;2022-08-14T13:05:27;21.25;;;9.33;;
32872;SDS011;19224;52.462;16.898;2022-08-14T13:08:06;13.00;;;8.20;;
32872;SDS011;19224;52.462;16.898;2022-08-14T13:10:37;11.70;;;8.08;;
32872;SDS011;19224;52.462;16.898;2022-08-14T13:13:15;11.78;;;7.50;;
32872;SDS011;19224;52.462;16.898;2022-08-14T13:15:40;11.53;;;7.75;;
32872;SDS011;19224;52.462;16.898;2022-08-14T13:18:14;15.28;;;7.67;;
32872;SDS011;19224;52.462;16.898;2022-08-14T13:20:47;10.58;;;7.40;;
32872;SDS011;19224;52.462;16.898;2022-08-14T13:23:19;10.03;;;7.87;;
32872;SDS011;19224;52.462;16.898;2022-08-14T13:25:55;14.07;;;11.15;;
32872;SDS011;19224;52.462;16.898;2022-08-14T13:28:28;11.95;;;8.45;;
32872;SDS011;19224;52.462;16.898;2022-08-14T13:31:11;12.05;;;8.48;;
32872;SDS011;19224;52.462;16.898;2022-08-14T13:34:02;11.43;;;8.48;;
32872;SDS011;19224;52.462;16.898;2022-08-14T13:36:35;11.60;;;8.85;;
32872;SDS011;19224;52.462;16.898;2022-08-14T13:39:07;12.45;;;8.03;;
32872;SDS011;19224;52.462;16.898;2022-08-14T13:41:41;10.40;;;8.40;;
32872;SDS011;19224;52.462;16.898;2022-08-14T13:44:17;17.73;;;8.10;;
32872;SDS011;19224;52.462;16.898;2022-08-14T13:46:51;11.12;;;8.13;;
32872;SDS011;19224;52.462;16.898;2022-08-14T13:49:23;11.60;;;8.45;;
32872;SDS011;19224;52.462;16.898;2022-08-14T13:51:54;14.53;;;8.05;;
32872;SDS011;19224;52.462;16.898;2022-08-14T13:54:30;14.18;;;8.53;;
32872;SDS011;19224;52.462;16.898;2022-08-14T13:57:06;10.15;;;8.28;;
32872;SDS011;19224;52.462;16.898;2022-08-14T13:59:45;12.60;;;8.00;;
32872;SDS011;19224;52.462;16.898;2022-08-14T14:02:19;9.65;;;7.90;;
32872;SDS011;19224;52.462;16.898;2022-08-14T14:04:51;11.93;;;8.55;;
32872;SDS011;19224;52.462;16.898;2022-08-14T14:07:24;13.72;;;8.58;;
32872;SDS011;19224;52.462;16.898;2022-08-14T14:10:00;11.85;;;7.70;;
32872;SDS011;19224;52.462;16.898;2022-08-14T14:12:35;10.72;;;8.08;;
32872;SDS011;19224;52.462;16.898;2022-08-14T14:15:12;12.98;;;8.13;;
32872;SDS011;19224;52.462;16.898;2022-08-14T14:17:48;12.68;;;7.83;;
32872;SDS011;19224;52.462;16.898;2022-08-14T14:20:24;9.65;;;7.80;;
32872;SDS011;19224;52.462;16.898;2022-08-14T14:22:55;14.18;;;10.23;;
32872;SDS011;19224;52.462;16.898;2022-08-14T14:25:26;14.50;;;9.43;;
32872;SDS011;19224;52.462;16.898;2022-08-14T14:27:56;12.05;;;8.38;;
32872;SDS011;19224;52.462;16.898;2022-08-14T14:30:30;14.87;;;7.72;;
32872;SDS011;19224;52.462;16.898;2022-08-14T14:33:01;10.75;;;7.42;;
32872;SDS011;19224;52.462;16.898;2022-08-14T14:35:34;12.90;;;7.40;;
32872;SDS011;19224;52.462;16.898;2022-08-14T14:38:12;11.60;;;7.53;;
32872;SDS011;19224;52.462;16.898;2022-08-14T14:40:43;10.63;;;7.17;;
32872;SDS011;19224;52.462;16.898;2022-08-14T14:43:17;9.43;;;7.00;;
32872;SDS011;19224;52.462;16.898;2022-08-14T14:45:50;13.38;;;7.10;;
32872;SDS011;19224;52.462;16.898;2022-08-14T14:48:24;13.62;;;7.05;;
32872;SDS011;19224;52.462;16.898;2022-08-14T14:50:57;11.55;;;7.12;;
32872;SDS011;19224;52.462;16.898;2022-08-14T14:53:31;10.72;;;7.12;;
32872;SDS011;19224;52.462;16.898;2022-08-14T14:56:02;10.43;;;7.55;;
32872;SDS011;19224;52.462;16.898;2022-08-14T14:58:39;11.10;;;6.85;;
32872;SDS011;19224;52.462;16.898;2022-08-14T15:01:13;11.57;;;7.30;;
32872;SDS011;19224;52.462;16.898;2022-08-14T15:04:08;9.65;;;6.70;;
32872;SDS011;19224;52.462;16.898;2022-08-14T15:06:33;11.38;;;7.67;;
32872;SDS011;19224;52.462;16.898;2022-08-14T15:09:08;13.75;;;7.33;;
32872;SDS011;19224;52.462;16.898;2022-08-14T15:11:39;11.88;;;7.30;;
32872;SDS011;19224;52.462;16.898;2022-08-14T15:14:14;12.75;;;7.42;;
32872;SDS011;19224;52.462;16.898;2022-08-14T15:16:50;12.78;;;7.17;;
32872;SDS011;19224;52.462;16.898;2022-08-14T15:19:21;10.63;;;7.35;;
32872;SDS011;19224;52.462;16.898;2022-08-14T15:22:01;13.08;;;7.12;;
32872;SDS011;19224;52.462;16.898;2022-08-14T15:24:27;8.20;;;6.95;;
32872;SDS011;19224;52.462;16.898;2022-08-14T15:27:00;9.85;;;7.20;;
32872;SDS011;19224;52.462;16.898;2022-08-14T15:29:39;9.50;;;6.65;;
32872;SDS011;19224;52.462;16.898;2022-08-14T15:32:07;8.13;;;6.80;;
32872;SDS011;19224;52.462;16.898;2022-08-14T15:34:43;11.63;;;6.60;;
32872;SDS011;19224;52.462;16.898;2022-08-14T15:37:15;10.48;;;6.28;;
32872;SDS011;19224;52.462;16.898;2022-08-14T15:39:49;7.17;;;5.80;;
32872;SDS011;19224;52.462;16.898;2022-08-14T15:42:21;7.58;;;6.03;;
32872;SDS011;19224;52.462;16.898;2022-08-14T15:44:53;6.85;;;5.53;;
32872;SDS011;19224;52.462;16.898;2022-08-14T15:47:26;12.88;;;5.55;;